sensor_id;sensor_type;location;lat;lon;timestamp;pressure;altitude;pressure_sealevel;temperature;humidity
48792;BME280;34587;48.816;9.420;2022-12-24T00:01:53;98237.81;;;10.11;88.43
48792;BME280;34587;48.816;9.420;2022-12-24T00:04:18;98242.75;;;9.84;89.81
48792;BME280;34587;48.816;9.420;2022-12-24T00:06:44;98242.16;;;9.71;91.52
48792;BME280;34587;48.816;9.420;2022-12-24T00:09:09;98256.72;;;9.77;91.51
48792;BME280;34587;48.816;9.420;2022-12-24T00:11:34;98249.22;;;10.02;88.48
48792;BME280;34587;48.816;9.420;2022-12-24T00:13:59;98242.38;;;9.99;88.87
48792;BME280;34587;48.816;9.420;2022-12-24T00:16:25;98259.84;;;9.90;89.66
48792;BME280;34587;48.816;9.420;2022-12-24T00:18:50;98256.19;;;9.98;89.13
48792;BME280;34587;48.816;9.420;2022-12-24T00:21:16;98247.25;;;10.12;88.62
48792;BME280;34587;48.816;9.420;2022-12-24T00:23:41;98254.50;;;9.97;89.87
48792;BME280;34587;48.816;9.420;2022-12-24T00:26:07;98254.34;;;10.03;87.64
48792;BME280;34587;48.816;9.420;2022-12-24T00:28:32;98257.63;;;10.12;88.54
48792;BME280;34587;48.816;9.420;2022-12-24T00:30:57;98272.28;;;10.11;89.16
48792;BME280;34587;48.816;9.420;2022-12-24T00:33:23;98264.56;;;10.10;88.94
48792;BME280;34587;48.816;9.420;2022-12-24T00:35:50;98268.66;;;10.18;88.50
48792;BME280;34587;48.816;9.420;2022-12-24T00:38:16;98255.00;;;10.47;84.53
48792;BME280;34587;48.816;9.420;2022-12-24T00:40:41;98265.06;;;10.25;86.95
48792;BME280;34587;48.816;9.420;2022-12-24T00:43:06;98277.75;;;10.36;85.68
48792;BME280;34587;48.816;9.420;2022-12-24T00:45:32;98268.50;;;10.59;83.10
48792;BME280;34587;48.816;9.420;2022-12-24T00:47:57;98264.59;;;10.44;85.16
48792;BME280;34587;48.816;9.420;2022-12-24T00:50:22;98274.50;;;10.28;86.07
48792;BME280;34587;48.816;9.420;2022-12-24T00:52:48;98272.78;;;10.27;85.54
48792;BME280;34587;48.816;9.420;2022-12-24T00:55:13;98277.91;;;10.30;84.76
48792;BME280;34587;48.816;9.420;2022-12-24T00:57:38;98288.53;;;10.18;86.64
48792;BME280;34587;48.816;9.420;2022-12-24T05:17:36;98538.47;;;8.24;100.00
48792;BME280;34587;48.816;9.420;2022-12-24T05:20:01;98541.94;;;8.23;100.00
48792;BME280;34587;48.816;9.420;2022-12-24T05:22:26;98555.75;;;8.19;100.00
48792;BME280;34587;48.816;9.420;2022-12-24T05:25:10;98572.91;;;8.23;100.00
48792;BME280;34587;48.816;9.420;2022-12-24T05:27:55;98557.47;;;8.17;100.00
48792;BME280;34587;48.816;9.420;2022-12-24T05:30:20;98560.19;;;8.08;100.00
48792;BME280;34587;48.816;9.420;2022-12-24T05:32:45;98562.91;;;7.95;100.00
48792;BME280;34587;48.816;9.420;2022-12-24T05:35:10;98558.63;;;7.91;100.00
48792;BME280;34587;48.816;9.420;2022-12-24T05:37:36;98559.44;;;7.96;100.00
48792;BME280;34587;48.816;9.420;2022-12-24T05:40:01;98562.59;;;8.23;100.00
48792;BME280;34587;48.816;9.420;2022-12-24T05:42:26;98560.16;;;8.09;100.00
48792;BME280;34587;48.816;9.420;2022-12-24T05:44:51;98569.75;;;7.99;100.00
48792;BME280;34587;48.816;9.420;2022-12-24T05:47:17;98562.06;;;7.95;100.00
48792;BME280;34587;48.816;9.420;2022-12-24T05:49:42;98569.91;;;7.84;100.00
48792;BME280;34587;48.816;9.420;2022-12-24T05:52:07;98559.63;;;7.78;100.00
48792;BME280;34587;48.816;9.420;2022-12-24T05:54:32;98556.75;;;8.06;100.00
48792;BME280;34587;48.816;9.420;2022-12-24T05:56:58;98552.56;;;7.98;100.00
48792;BME280;34587;48.816;9.420;2022-12-24T05:59:23;98556.22;;;7.76;100.00
48792;BME280;34587;48.816;9.420;2022-12-24T06:01:48;98568.28;;;7.74;100.00
48792;BME280;34587;48.816;9.420;2022-12-24T06:04:14;98571.72;;;7.73;100.00
48792;BME280;34587;48.816;9.420;2022-12-24T06:06:39;98573.44;;;7.74;100.00
48792;BME280;34587;48.816;9.420;2022-12-24T06:09:04;98569.09;;;7.78;100.00
48792;BME280;34587;48.816;9.420;2022-12-24T06:11:30;98571.59;;;7.88;100.00
48792;BME280;34587;48.816;9.420;2022-12-24T06:13:55;98580.19;;;7.87;100.00
48792;BME280;34587;48.816;9.420;2022-12-24T06:16:22;98586.69;;;8.22;100.00
48792;BME280;34587;48.816;9.420;2022-12-24T06:18:47;98585.34;;;7.89;100.00
48792;BME280;34587;48.816;9.420;2022-12-24T06:21:13;98584.53;;;7.84;100.00
48792;BME280;34587;48.816;9.420;2022-12-24T06:23:40;98586.06;;;8.00;100.00
48792;BME280;34587;48.816;9.420;2022-12-24T06:26:07;98586.03;;;8.02;100.00
48792;BME280;34587;48.816;9.420;2022-12-24T06:28:34;98593.59;;;8.20;98.93
48792;BME280;34587;48.816;9.420;2022-12-24T06:31:00;98601.31;;;8.20;98.02
48792;BME280;34587;48.816;9.420;2022-12-24T06:33:26;98598.84;;;8.11;99.15
48792;BME280;34587;48.816;9.420;2022-12-24T06:35:51;98602.09;;;8.28;98.44
48792;BME280;34587;48.816;9.420;2022-12-24T06:38:17;98609.06;;;8.23;97.84
48792;BME280;34587;48.816;9.420;2022-12-24T06:40:43;98605.69;;;8.15;100.00
48792;BME280;34587;48.816;9.420;2022-12-24T06:43:09;98601.66;;;7.88;100.00
48792;BME280;34587;48.816;9.420;2022-12-24T06:45:35;98607.78;;;7.79;100.00
48792;BME280;34587;48.816;9.420;2022-12-24T06:48:00;98614.72;;;7.71;100.00
48792;BME280;34587;48.816;9.420;2022-12-24T06:50:26;98620.00;;;7.57;100.00
48792;BME280;34587;48.816;9.420;2022-12-24T06:52:51;98624.31;;;7.57;100.00
48792;BME280;34587;48.816;9.420;2022-12-24T06:55:17;98637.25;;;7.51;100.00
48792;BME280;34587;48.816;9.420;2022-12-24T06:57:42;98635.38;;;7.71;100.00
48792;BME280;34587;48.816;9.420;2022-12-24T07:00:09;98644.88;;;7.63;100.00
48792;BME280;34587;48.816;9.420;2022-12-24T07:02:35;98644.06;;;7.58;100.00
48792;BME280;34587;48.816;9.420;2022-12-24T07:05:03;98652.69;;;7.54;100.00
48792;BME280;34587;48.816;9.420;2022-12-24T07:07:28;98650.03;;;7.63;100.00
48792;BME280;34587;48.816;9.420;2022-12-24T07:09:54;98649.94;;;7.73;100.00
48792;BME280;34587;48.816;9.420;2022-12-24T07:12:19;98650.81;;;7.74;100.00
48792;BME280;34587;48.816;9.420;2022-12-24T07:14:45;98649.09;;;7.75;100.00
48792;BME280;34587;48.816;9.420;2022-12-24T07:17:10;98654.28;;;7.70;100.00
48792;BME280;34587;48.816;9.420;2022-12-24T07:19:35;98661.94;;;7.78;100.00
48792;BME280;34587;48.816;9.420;2022-12-24T07:22:01;98664.53;;;7.79;100.00
48792;BME280;34587;48.816;9.420;2022-12-24T07:24:26;98654.16;;;7.85;100.00
48792;BME280;34587;48.816;9.420;2022-12-24T07:26:51;98660.84;;;8.05;100.00
48792;BME280;34587;48.816;9.420;2022-12-24T07:29:16;98660.84;;;8.05;100.00
48792;BME280;34587;48.816;9.420;2022-12-24T07:31:42;98669.41;;;8.07;100.00
48792;BME280;34587;48.816;9.420;2022-12-24T07:34:07;98669.63;;;7.88;100.00
48792;BME280;34587;48.816;9.420;2022-12-24T07:36:32;98674.72;;;7.94;100.00
48792;BME280;34587;48.816;9.420;2022-12-24T07:38:58;98684.97;;;8.01;100.00
48792;BME280;34587;48.816;9.420;2022-12-24T07:41:23;98677.94;;;8.18;100.00
48792;BME280;34587;48.816;9.420;2022-12-24T07:43:48;98675.22;;;8.32;99.23
48792;BME280;34587;48.816;9.420;2022-12-24T07:46:13;98677.75;;;8.33;98.90
48792;BME280;34587;48.816;9.420;2022-12-24T07:48:39;98698.38;;;8.39;96.93
48792;BME280;34587;48.816;9.420;2022-12-24T07:51:04;98689.72;;;8.43;96.75
48792;BME280;34587;48.816;9.420;2022-12-24T07:53:30;98698.41;;;8.36;97.30
48792;BME280;34587;48.816;9.420;2022-12-24T07:55:56;98703.38;;;8.55;95.17
48792;BME280;34587;48.816;9.420;2022-12-24T07:58:22;98697.41;;;8.51;95.46
48792;BME280;34587;48.816;9.420;2022-12-24T08:00:48;98698.19;;;8.58;94.94
48792;BME280;34587;48.816;9.420;2022-12-24T08:03:18;98701.41;;;8.77;94.10
48792;BME280;34587;48.816;9.420;2022-12-24T08:05:43;98701.28;;;8.87;92.82
48792;BME280;34587;48.816;9.420;2022-12-24T08:08:09;98697.06;;;8.80;93.53
48792;BME280;34587;48.816;9.420;2022-12-24T08:10:37;98702.19;;;8.83;93.81
48792;BME280;34587;48.816;9.420;2022-12-24T08:13:03;98703.97;;;8.78;93.15
48792;BME280;34587;48.816;9.420;2022-12-24T08:15:28;98701.19;;;8.93;91.54
48792;BME280;34587;48.816;9.420;2022-12-24T08:17:53;98708.19;;;8.85;94.61
48792;BME280;34587;48.816;9.420;2022-12-24T08:20:18;98709.66;;;9.06;93.73
48792;BME280;34587;48.816;9.420;2022-12-24T08:22:44;98707.94;;;9.04;93.30
48792;BME280;34587;48.816;9.420;2022-12-24T08:25:09;98717.50;;;8.97;93.92
48792;BME280;34587;48.816;9.420;2022-12-24T08:27:35;98724.38;;;8.98;94.79
48792;BME280;34587;48.816;9.420;2022-12-24T08:30:01;98719.38;;;8.86;93.96
48792;BME280;34587;48.816;9.420;2022-12-24T08:32:26;98734.94;;;8.81;94.78
48792;BME280;34587;48.816;9.420;2022-12-24T08:34:52;98727.97;;;8.85;94.59
48792;BME280;34587;48.816;9.420;2022-12-24T08:37:17;98735.41;;;9.14;94.01
48792;BME280;34587;48.816;9.420;2022-12-24T08:39:42;98733.56;;;9.23;92.97
48792;BME280;34587;48.816;9.420;2022-12-24T08:42:07;98743.03;;;9.21;92.96
48792;BME280;34587;48.816;9.420;2022-12-24T08:44:33;98743.69;;;9.37;93.20
48792;BME280;34587;48.816;9.420;2022-12-24T08:46:58;98741.97;;;9.36;92.10
48792;BME280;34587;48.816;9.420;2022-12-24T08:49:23;98756.03;;;9.17;94.31
48792;BME280;34587;48.816;9.420;2022-12-24T08:51:50;98756.13;;;9.08;93.67
48792;BME280;34587;48.816;9.420;2022-12-24T08:54:15;98759.56;;;9.10;94.26
48792;BME280;34587;48.816;9.420;2022-12-24T08:56:40;98753.34;;;9.24;91.22
48792;BME280;34587;48.816;9.420;2022-12-24T08:59:06;98761.81;;;9.36;91.02
48792;BME280;34587;48.816;9.420;2022-12-24T09:01:31;98762.72;;;9.33;90.77
48792;BME280;34587;48.816;9.420;2022-12-24T09:03:56;98764.44;;;9.34;91.34
48792;BME280;34587;48.816;9.420;2022-12-24T09:06:22;98762.53;;;9.45;91.56
48792;BME280;34587;48.816;9.420;2022-12-24T09:08:47;98769.25;;;9.59;91.88
48792;BME280;34587;48.816;9.420;2022-12-24T09:11:15;98762.81;;;9.86;90.81
48792;BME280;34587;48.816;9.420;2022-12-24T09:13:41;98769.63;;;9.93;90.27
48792;BME280;34587;48.816;9.420;2022-12-24T09:16:07;98778.16;;;9.98;88.95
48792;BME280;34587;48.816;9.420;2022-12-24T09:18:33;98776.91;;;10.22;86.03
48792;BME280;34587;48.816;9.420;2022-12-24T09:21:08;98782.78;;;10.33;86.86
48792;BME280;34587;48.816;9.420;2022-12-24T09:23:35;98792.03;;;10.49;86.69
48792;BME280;34587;48.816;9.420;2022-12-24T09:26:23;98787.00;;;10.40;83.43
48792;BME280;34587;48.816;9.420;2022-12-24T09:28:50;98790.06;;;10.64;84.40
48792;BME280;34587;48.816;9.420;2022-12-24T09:31:16;98789.38;;;10.97;81.78
48792;BME280;34587;48.816;9.420;2022-12-24T09:33:43;98777.44;;;10.90;79.52
48792;BME280;34587;48.816;9.420;2022-12-24T09:36:09;98782.47;;;11.40;77.11
48792;BME280;34587;48.816;9.420;2022-12-24T09:38:35;98780.06;;;11.32;75.12
48792;BME280;34587;48.816;9.420;2022-12-24T09:41:00;98780.84;;;10.92;73.73
48792;BME280;34587;48.816;9.420;2022-12-24T09:43:31;98783.31;;;13.17;68.74
48792;BME280;34587;48.816;9.420;2022-12-24T09:46:26;98774.91;;;15.46;59.08
48792;BME280;34587;48.816;9.420;2022-12-24T09:48:59;98781.91;;;17.54;52.67
48792;BME280;34587;48.816;9.420;2022-12-24T09:51:40;98783.16;;;16.87;53.18
48792;BME280;34587;48.816;9.420;2022-12-24T09:54:14;98789.84;;;17.34;51.78
48792;BME280;34587;48.816;9.420;2022-12-24T09:56:46;98774.53;;;18.00;50.75
48792;BME280;34587;48.816;9.420;2022-12-24T09:59:44;98777.06;;;18.55;48.95
48792;BME280;34587;48.816;9.420;2022-12-24T10:02:13;98782.91;;;16.10;53.99
48792;BME280;34587;48.816;9.420;2022-12-24T10:04:41;98783.28;;;18.71;48.75
48792;BME280;34587;48.816;9.420;2022-12-24T10:07:36;98786.88;;;17.60;50.54
48792;BME280;34587;48.816;9.420;2022-12-24T10:16:12;98793.44;;;14.91;59.11
48792;BME280;34587;48.816;9.420;2022-12-24T10:19:00;98804.22;;;14.03;62.58
48792;BME280;34587;48.816;9.420;2022-12-24T10:21:57;98798.66;;;13.85;62.92
48792;BME280;34587;48.816;9.420;2022-12-24T10:24:48;98787.53;;;15.82;56.80
48792;BME280;34587;48.816;9.420;2022-12-24T10:27:20;98784.91;;;19.07;48.91
48792;BME280;34587;48.816;9.420;2022-12-24T10:29:53;98787.16;;;21.30;42.62
48792;BME280;34587;48.816;9.420;2022-12-24T10:32:25;98789.16;;;22.23;38.56
48792;BME280;34587;48.816;9.420;2022-12-24T10:34:58;98797.31;;;20.17;41.97
48792;BME280;34587;48.816;9.420;2022-12-24T10:37:26;98802.88;;;19.97;42.71
48792;BME280;34587;48.816;9.420;2022-12-24T10:39:54;98817.88;;;17.32;49.23
48792;BME280;34587;48.816;9.420;2022-12-24T10:42:22;98818.63;;;15.88;53.27
48792;BME280;34587;48.816;9.420;2022-12-24T10:44:49;98818.69;;;14.66;56.91
48792;BME280;34587;48.816;9.420;2022-12-24T10:47:18;98826.09;;;13.68;61.19
48792;BME280;34587;48.816;9.420;2022-12-24T10:49:48;98816.06;;;12.93;62.55
48792;BME280;34587;48.816;9.420;2022-12-24T10:52:20;98819.69;;;12.86;64.16
48792;BME280;34587;48.816;9.420;2022-12-24T10:57:38;98831.06;;;12.14;66.21
48792;BME280;34587;48.816;9.420;2022-12-24T11:00:06;98828.09;;;11.92;67.62
48792;BME280;34587;48.816;9.420;2022-12-24T11:05:00;98827.09;;;11.57;69.00
48792;BME280;34587;48.816;9.420;2022-12-24T11:07:27;98836.44;;;11.66;69.17
48792;BME280;34587;48.816;9.420;2022-12-24T11:10:01;98820.72;;;11.72;68.88
48792;BME280;34587;48.816;9.420;2022-12-24T11:12:34;98816.06;;;11.88;69.60
48792;BME280;34587;48.816;9.420;2022-12-24T11:15:18;98823.28;;;11.73;70.60
48792;BME280;34587;48.816;9.420;2022-12-24T11:18:05;98815.03;;;11.56;70.86
48792;BME280;34587;48.816;9.420;2022-12-24T11:20:37;98816.53;;;11.66;70.02
48792;BME280;34587;48.816;9.420;2022-12-24T11:23:04;98809.66;;;11.64;70.79
48792;BME280;34587;48.816;9.420;2022-12-24T11:25:31;98812.78;;;11.78;69.94
48792;BME280;34587;48.816;9.420;2022-12-24T11:31:05;98817.53;;;11.61;71.31
48792;BME280;34587;48.816;9.420;2022-12-24T11:33:46;98819.31;;;11.55;71.11
48792;BME280;34587;48.816;9.420;2022-12-24T11:36:12;98818.38;;;11.61;69.04
48792;BME280;34587;48.816;9.420;2022-12-24T11:38:38;98815.94;;;11.53;69.68
48792;BME280;34587;48.816;9.420;2022-12-24T11:41:06;98820.13;;;11.61;71.57
48792;BME280;34587;48.816;9.420;2022-12-24T11:43:38;98817.38;;;11.65;71.70
48792;BME280;34587;48.816;9.420;2022-12-24T11:46:19;98806.09;;;11.68;71.73
48792;BME280;34587;48.816;9.420;2022-12-24T11:48:45;98803.69;;;11.58;72.50
48792;BME280;34587;48.816;9.420;2022-12-24T11:51:25;98809.69;;;11.62;70.72
48792;BME280;34587;48.816;9.420;2022-12-24T11:54:21;98811.63;;;11.52;70.60
48792;BME280;34587;48.816;9.420;2022-12-24T11:56:51;98807.34;;;11.51;70.43
48792;BME280;34587;48.816;9.420;2022-12-24T11:59:25;98814.13;;;11.55;71.25
48792;BME280;34587;48.816;9.420;2022-12-24T12:01:59;98808.34;;;11.44;72.66
48792;BME280;34587;48.816;9.420;2022-12-24T12:04:29;98809.97;;;11.48;72.63
48792;BME280;34587;48.816;9.420;2022-12-24T12:07:13;98800.34;;;11.53;73.08
48792;BME280;34587;48.816;9.420;2022-12-24T12:10:06;98798.66;;;11.52;73.79
48792;BME280;34587;48.816;9.420;2022-12-24T12:12:47;98799.34;;;11.61;73.08
48792;BME280;34587;48.816;9.420;2022-12-24T12:15:26;98789.91;;;11.56;73.49
48792;BME280;34587;48.816;9.420;2022-12-24T12:18:12;98789.97;;;11.53;73.87
48792;BME280;34587;48.816;9.420;2022-12-24T12:20:47;98795.13;;;11.95;72.13
48792;BME280;34587;48.816;9.420;2022-12-24T12:23:19;98790.47;;;12.09;70.92
48792;BME280;34587;48.816;9.420;2022-12-24T12:25:53;98783.47;;;12.12;71.98
48792;BME280;34587;48.816;9.420;2022-12-24T12:28:22;98785.13;;;12.16;72.39
48792;BME280;34587;48.816;9.420;2022-12-24T12:31:25;98791.59;;;11.98;71.26
48792;BME280;34587;48.816;9.420;2022-12-24T12:36:32;98789.44;;;11.78;73.22
48792;BME280;34587;48.816;9.420;2022-12-24T12:38:58;98789.44;;;11.78;73.16
48792;BME280;34587;48.816;9.420;2022-12-24T12:50:14;98819.91;;;11.28;74.06
48792;BME280;34587;48.816;9.420;2022-12-24T12:53:06;98821.00;;;11.16;74.48
48792;BME280;34587;48.816;9.420;2022-12-24T12:58:42;98825.03;;;11.31;74.71
48792;BME280;34587;48.816;9.420;2022-12-24T13:17:47;98821.25;;;11.04;75.55
48792;BME280;34587;48.816;9.420;2022-12-24T13:20:10;98827.03;;;11.17;75.41
48792;BME280;34587;48.816;9.420;2022-12-24T13:22:59;98817.19;;;11.34;75.08
48792;BME280;34587;48.816;9.420;2022-12-24T13:25:35;98819.41;;;11.52;74.47
48792;BME280;34587;48.816;9.420;2022-12-24T13:30:46;98823.28;;;11.73;73.76
48792;BME280;34587;48.816;9.420;2022-12-24T13:33:44;98825.72;;;11.79;74.38
48792;BME280;34587;48.816;9.420;2022-12-24T13:36:03;98822.19;;;11.85;74.41
48792;BME280;34587;48.816;9.420;2022-12-24T13:38:50;98819.00;;;12.11;73.20
48792;BME280;34587;48.816;9.420;2022-12-24T13:49:26;98818.06;;;12.49;71.00
48792;BME280;34587;48.816;9.420;2022-12-24T13:52:05;98819.94;;;12.44;71.84
48792;BME280;34587;48.816;9.420;2022-12-24T13:54:30;98818.09;;;12.14;73.88
48792;BME280;34587;48.816;9.420;2022-12-24T13:56:58;98827.69;;;12.10;73.75
48792;BME280;34587;48.816;9.420;2022-12-24T13:59:35;98832.44;;;11.91;74.40
48792;BME280;34587;48.816;9.420;2022-12-24T14:02:02;98838.28;;;11.59;75.17
48792;BME280;34587;48.816;9.420;2022-12-24T14:04:32;98823.63;;;11.58;76.03
48792;BME280;34587;48.816;9.420;2022-12-24T14:07:01;98821.06;;;11.56;75.60
48792;BME280;34587;48.816;9.420;2022-12-24T14:09:29;98814.84;;;11.64;74.66
48792;BME280;34587;48.816;9.420;2022-12-24T14:14:27;98819.31;;;11.55;75.16
48792;BME280;34587;48.816;9.420;2022-12-24T14:16:57;98813.38;;;11.50;75.45
48792;BME280;34587;48.816;9.420;2022-12-24T14:19:40;98810.25;;;11.35;76.23
48792;BME280;34587;48.816;9.420;2022-12-24T14:22:16;98799.03;;;11.34;77.21
48792;BME280;34587;48.816;9.420;2022-12-24T14:24:50;98800.09;;;11.66;73.83
48792;BME280;34587;48.816;9.420;2022-12-24T14:27:20;98805.81;;;11.41;75.56
48792;BME280;34587;48.816;9.420;2022-12-24T14:32:39;98793.72;;;11.40;76.60
48792;BME280;34587;48.816;9.420;2022-12-24T14:37:44;98793.50;;;11.09;78.82
48792;BME280;34587;48.816;9.420;2022-12-24T14:40:20;98801.72;;;10.86;80.20
48792;BME280;34587;48.816;9.420;2022-12-24T14:43:13;98807.19;;;10.71;81.37
48792;BME280;34587;48.816;9.420;2022-12-24T14:45:52;98804.47;;;10.78;81.39
48792;BME280;34587;48.816;9.420;2022-12-24T14:48:33;98811.03;;;10.48;82.88
48792;BME280;34587;48.816;9.420;2022-12-24T14:54:15;98802.69;;;10.31;85.06
48792;BME280;34587;48.816;9.420;2022-12-24T14:56:45;98812.34;;;10.18;86.16
48792;BME280;34587;48.816;9.420;2022-12-24T14:59:18;98830.66;;;10.08;87.43
48792;BME280;34587;48.816;9.420;2022-12-24T15:01:44;98827.41;;;9.93;88.44
48792;BME280;34587;48.816;9.420;2022-12-24T15:06:55;98834.50;;;9.79;89.16
48792;BME280;34587;48.816;9.420;2022-12-24T15:09:24;98847.59;;;9.68;90.00
48792;BME280;34587;48.816;9.420;2022-12-24T15:11:52;98838.13;;;9.66;89.77
48792;BME280;34587;48.816;9.420;2022-12-24T15:14:20;98836.34;;;9.71;89.45
48792;BME280;34587;48.816;9.420;2022-12-24T15:16:55;98832.25;;;9.55;90.07
48792;BME280;34587;48.816;9.420;2022-12-24T15:21:53;98828.16;;;9.38;90.56
48792;BME280;34587;48.816;9.420;2022-12-24T15:24:35;98840.81;;;8.84;93.08
48792;BME280;34587;48.816;9.420;2022-12-24T15:27:16;98838.44;;;8.63;94.22
48792;BME280;34587;48.816;9.420;2022-12-24T15:29:44;98837.63;;;8.58;94.66
48792;BME280;34587;48.816;9.420;2022-12-24T15:32:14;98827.31;;;8.55;94.98
48792;BME280;34587;48.816;9.420;2022-12-24T15:34:42;98827.03;;;8.85;93.10
48792;BME280;34587;48.816;9.420;2022-12-24T15:37:17;98839.16;;;8.77;93.79
48792;BME280;34587;48.816;9.420;2022-12-24T15:39:51;98839.25;;;8.68;93.49
48792;BME280;34587;48.816;9.420;2022-12-24T15:42:17;98854.91;;;8.53;94.66
48792;BME280;34587;48.816;9.420;2022-12-24T15:45:25;98863.53;;;8.45;95.25
48792;BME280;34587;48.816;9.420;2022-12-24T15:47:58;98870.28;;;8.65;94.49
48792;BME280;34587;48.816;9.420;2022-12-24T15:52:55;98878.00;;;8.68;95.67
48792;BME280;34587;48.816;9.420;2022-12-24T15:57:59;98875.63;;;8.46;96.24
48792;BME280;34587;48.816;9.420;2022-12-24T16:00:27;98868.84;;;8.24;95.91
48792;BME280;34587;48.816;9.420;2022-12-24T16:03:18;98872.41;;;8.06;96.92
48792;BME280;34587;48.816;9.420;2022-12-24T16:05:44;98875.88;;;8.04;96.36
48792;BME280;34587;48.816;9.420;2022-12-24T16:10:42;98865.50;;;8.13;95.83
48792;BME280;34587;48.816;9.420;2022-12-24T16:13:23;98863.75;;;8.18;95.14
48792;BME280;34587;48.816;9.420;2022-12-24T16:16:10;98869.75;;;8.20;95.31
48792;BME280;34587;48.816;9.420;2022-12-24T16:18:50;98875.78;;;8.16;95.66
48792;BME280;34587;48.816;9.420;2022-12-24T16:21:40;98873.84;;;8.52;95.46
48792;BME280;34587;48.816;9.420;2022-12-24T16:24:24;98867.94;;;8.37;95.62
48792;BME280;34587;48.816;9.420;2022-12-24T16:26:50;98863.63;;;8.33;96.94
48792;BME280;34587;48.816;9.420;2022-12-24T16:29:17;98865.38;;;8.28;97.42
48792;BME280;34587;48.816;9.420;2022-12-24T16:31:54;98872.97;;;8.49;96.22
48792;BME280;34587;48.816;9.420;2022-12-24T16:34:23;98878.97;;;8.55;95.34
48792;BME280;34587;48.816;9.420;2022-12-24T16:36:49;98880.53;;;8.74;94.67
48792;BME280;34587;48.816;9.420;2022-12-24T16:39:19;98883.22;;;8.60;95.37
48792;BME280;34587;48.816;9.420;2022-12-24T16:41:47;98888.56;;;8.39;96.60
48792;BME280;34587;48.816;9.420;2022-12-24T16:44:30;98882.44;;;8.50;96.46
48792;BME280;34587;48.816;9.420;2022-12-24T16:46:57;98876.41;;;8.53;95.54
48792;BME280;34587;48.816;9.420;2022-12-24T16:49:24;98886.88;;;8.32;97.08
48792;BME280;34587;48.816;9.420;2022-12-24T16:51:49;98892.91;;;8.29;97.85
48792;BME280;34587;48.816;9.420;2022-12-24T16:54:14;98900.66;;;8.26;98.44
48792;BME280;34587;48.816;9.420;2022-12-24T16:56:41;98899.84;;;8.21;99.06
48792;BME280;34587;48.816;9.420;2022-12-24T16:59:27;98899.03;;;8.11;99.51
48792;BME280;34587;48.816;9.420;2022-12-24T17:01:52;98911.13;;;8.02;99.96
48792;BME280;34587;48.816;9.420;2022-12-24T17:04:18;98918.88;;;8.05;100.00
48792;BME280;34587;48.816;9.420;2022-12-24T17:06:43;98909.28;;;8.25;99.98
48792;BME280;34587;48.816;9.420;2022-12-24T17:11:39;98905.69;;;8.49;99.40
48792;BME280;34587;48.816;9.420;2022-12-24T17:14:04;98908.25;;;8.54;98.61
48792;BME280;34587;48.816;9.420;2022-12-24T17:16:30;98918.63;;;8.47;97.98
48792;BME280;34587;48.816;9.420;2022-12-24T17:18:55;98920.34;;;8.45;98.38
48792;BME280;34587;48.816;9.420;2022-12-24T17:21:21;98918.53;;;8.60;95.84
48792;BME280;34587;48.816;9.420;2022-12-24T17:23:46;98923.75;;;8.54;96.02
48792;BME280;34587;48.816;9.420;2022-12-24T17:26:13;98919.44;;;8.54;96.87
48792;BME280;34587;48.816;9.420;2022-12-24T17:28:39;98918.56;;;8.54;97.16
48792;BME280;34587;48.816;9.420;2022-12-24T17:31:09;98925.50;;;8.45;97.11
48792;BME280;34587;48.816;9.420;2022-12-24T17:33:35;98923.81;;;8.44;97.63
48792;BME280;34587;48.816;9.420;2022-12-24T17:36:01;98932.50;;;8.28;98.50
48792;BME280;34587;48.816;9.420;2022-12-24T17:38:26;98927.34;;;8.28;99.44
48792;BME280;34587;48.816;9.420;2022-12-24T17:40:59;98929.19;;;8.05;100.00
48792;BME280;34587;48.816;9.420;2022-12-24T17:43:24;98933.41;;;8.16;100.00
48792;BME280;34587;48.816;9.420;2022-12-24T17:45:49;98934.13;;;8.47;99.35
48792;BME280;34587;48.816;9.420;2022-12-24T17:48:15;98937.53;;;8.49;97.80
48792;BME280;34587;48.816;9.420;2022-12-24T17:50:40;98935.84;;;8.48;98.83
48792;BME280;34587;48.816;9.420;2022-12-24T17:53:05;98946.25;;;8.30;99.41
48792;BME280;34587;48.816;9.420;2022-12-24T17:55:30;98954.00;;;8.32;99.72
48792;BME280;34587;48.816;9.420;2022-12-24T17:57:56;98946.16;;;8.48;98.92
48792;BME280;34587;48.816;9.420;2022-12-24T18:00:21;98948.72;;;8.50;98.35
48792;BME280;34587;48.816;9.420;2022-12-24T18:02:46;98953.97;;;8.38;98.98
48792;BME280;34587;48.816;9.420;2022-12-24T18:05:12;98955.69;;;8.34;98.75
48792;BME280;34587;48.816;9.420;2022-12-24T18:07:37;98955.69;;;8.34;99.34
48792;BME280;34587;48.816;9.420;2022-12-24T18:10:02;98944.53;;;8.32;99.31
48792;BME280;34587;48.816;9.420;2022-12-24T18:12:28;98941.97;;;8.28;99.44
48792;BME280;34587;48.816;9.420;2022-12-24T18:14:54;98953.19;;;8.19;100.00
48792;BME280;34587;48.816;9.420;2022-12-24T18:17:19;98953.25;;;8.10;100.00
48792;BME280;34587;48.816;9.420;2022-12-24T18:19:45;98954.91;;;8.20;100.00
48792;BME280;34587;48.816;9.420;2022-12-24T18:22:10;98950.66;;;8.14;100.00
48792;BME280;34587;48.816;9.420;2022-12-24T18:24:35;98946.28;;;8.24;100.00
48792;BME280;34587;48.816;9.420;2022-12-24T18:27:00;98937.66;;;8.28;99.77
48792;BME280;34587;48.816;9.420;2022-12-24T18:29:26;98945.47;;;8.16;100.00
48792;BME280;34587;48.816;9.420;2022-12-24T18:31:52;98940.38;;;8.04;100.00
48792;BME280;34587;48.816;9.420;2022-12-24T18:34:17;98942.00;;;8.21;100.00
48792;BME280;34587;48.816;9.420;2022-12-24T18:36:43;98937.75;;;8.13;100.00
48792;BME280;34587;48.816;9.420;2022-12-24T18:39:08;98942.88;;;8.22;100.00
48792;BME280;34587;48.816;9.420;2022-12-24T18:41:34;98945.56;;;7.97;100.00
48792;BME280;34587;48.816;9.420;2022-12-24T18:44:00;98946.47;;;7.93;100.00
48792;BME280;34587;48.816;9.420;2022-12-24T18:46:28;98949.00;;;7.96;100.00
48792;BME280;34587;48.816;9.420;2022-12-24T18:48:56;98944.59;;;8.20;100.00
48792;BME280;34587;48.816;9.420;2022-12-24T18:51:23;98946.34;;;8.18;100.00
48792;BME280;34587;48.816;9.420;2022-12-24T18:53:49;98948.91;;;8.16;100.00
48792;BME280;34587;48.816;9.420;2022-12-24T18:56:17;98944.69;;;8.05;100.00
48792;BME280;34587;48.816;9.420;2022-12-24T18:58:43;98946.34;;;8.12;100.00